Time;durP1;ratioP1;P1;durP2;ratioP2;P2;SDS_P1;SDS_P2;PMS_P1;PMS_P2;Temp;Humidity;BMP_temperature;BMP_pressure;BME280_temperature;BME280_humidity;BME280_pressure;Samples;Min_cycle;Max_cycle;Signal;HPM_P1;HPM_P2
2021/08/11 00:01:07;;;;;;;10.88;3.08;;;;;;;20.48;65.76;100434.72;5073287;28;20135;-66
2021/08/11 00:03:33;;;;;;;8.10;4.00;;;;;;;20.51;65.61;100436.03;5072185;28;20051;-66
2021/08/11 00:06:01;;;;;;;9.85;3.28;;;;;;;20.49;65.64;100442.03;5071262;28;20040;-65
2021/08/11 00:08:27;;;;;;;8.32;3.20;;;;;;;20.43;65.44;100436.94;5072907;28;20540;-66
2021/08/11 00:10:54;;;;;;;8.55;4.05;;;;;;;20.51;65.30;100445.38;5072199;28;20125;-66
2021/08/11 00:13:21;;;;;;;7.70;3.42;;;;;;;20.47;65.36;100438.69;5072747;28;20555;-66
2021/08/11 00:15:48;;;;;;;13.25;4.10;;;;;;;20.46;65.20;100437.06;5072814;28;20135;-65
2021/08/11 00:18:15;;;;;;;10.40;3.88;;;;;;;20.46;65.19;100442.72;5067302;28;20049;-65
2021/08/11 00:20:42;;;;;;;12.52;3.25;;;;;;;20.42;65.20;100440.94;5052810;28;20128;-65
2021/08/11 00:23:10;;;;;;;9.15;4.15;;;;;;;20.42;65.30;100447.44;5053398;28;20131;-65
2021/08/11 00:25:37;;;;;;;12.45;3.65;;;;;;;20.42;65.41;100440.94;5052434;28;20091;-66
2021/08/11 00:28:04;;;;;;;16.00;5.18;;;;;;;20.38;65.20;100443.66;5052651;28;20076;-65
2021/08/11 00:30:31;;;;;;;15.48;5.15;;;;;;;20.16;65.42;100416.50;5052673;28;20080;-65
2021/08/11 00:32:58;;;;;;;8.90;3.95;;;;;;;20.29;65.29;100448.59;5056323;28;20123;-66
2021/08/11 00:35:25;;;;;;;11.13;3.42;;;;;;;20.25;65.65;100442.78;5072546;28;20048;-65
2021/08/11 00:37:51;;;;;;;13.10;4.10;;;;;;;20.22;65.60;100431.31;5071761;28;20135;-65
2021/08/11 00:40:22;;;;;;;15.02;3.88;;;;;;;20.21;65.88;100424.00;5056184;28;20123;-66
2021/08/11 00:42:50;;;;;;;13.80;3.45;;;;;;;20.19;65.59;100417.81;5054447;28;20083;-65
2021/08/11 00:45:17;;;;;;;7.20;2.63;;;;;;;20.07;65.57;100413.78;5072521;28;20044;-65
2021/08/11 00:47:49;;;;;;;16.05;3.47;;;;;;;20.06;65.67;100417.75;5071297;28;20048;-66
2021/08/11 00:50:17;;;;;;;11.80;4.25;;;;;;;19.94;65.80;100397.88;5072056;28;20131;-66
2021/08/11 00:52:44;;;;;;;16.63;5.15;;;;;;;19.75;65.87;100372.06;5088563;28;20083;-66
2021/08/11 00:55:11;;;;;;;13.27;4.47;;;;;;;19.98;66.13;100413.03;5092631;28;20063;-66
2021/08/11 00:57:39;;;;;;;16.98;4.85;;;;;;;19.95;66.21;100404.38;5071115;28;20132;-66
2021/08/11 01:00:07;;;;;;;13.27;5.57;;;;;;;19.90;66.11;100413.94;5054146;28;20124;-66
2021/08/11 01:02:35;;;;;;;16.95;6.05;;;;;;;19.78;66.09;100399.69;5072278;28;20128;-66
2021/08/11 01:05:03;;;;;;;14.63;5.63;;;;;;;19.78;66.37;100399.69;5072181;28;20198;-66
2021/08/11 01:07:32;;;;;;;16.58;5.32;;;;;;;19.54;66.66;100367.19;5054244;28;20139;-66
2021/08/11 01:09:59;;;;;;;19.52;5.38;;;;;;;19.47;66.56;100364.09;5071149;28;20119;-66
2021/08/11 01:12:27;;;;;;;32.95;5.88;;;;;;;19.60;66.49;100393.31;5054428;28;20049;-66
2021/08/11 01:14:54;;;;;;;17.95;5.65;;;;;;;19.54;66.44;100395.53;5062833;28;20131;-66
2021/08/11 01:17:23;;;;;;;38.70;6.28;;;;;;;19.47;66.56;100400.91;5052226;28;20052;-66
2021/08/11 01:19:59;;;;;;;26.10;5.68;;;;;;;19.36;66.92;100408.16;5064707;28;20144;-66
2021/08/11 01:22:49;;;;;;;51.13;7.05;;;;;;;19.09;67.24;100396.16;5072388;28;20124;-66
2021/08/11 01:25:40;;;;;;;17.13;5.07;;;;;;;18.97;67.61;100413.03;5072075;28;20049;-66
2021/08/11 01:28:29;;;;;;;31.15;6.03;;;;;;;19.02;67.31;100420.50;5070840;28;20079;-66
2021/08/11 01:31:14;;;;;;;16.80;5.32;;;;;;;18.94;67.56;100408.91;5071111;28;20083;-66
2021/08/11 01:33:58;;;;;;;62.63;6.78;;;;;;;19.08;67.64;100419.16;5051591;28;20086;-66
2021/08/11 01:36:36;;;;;;;13.00;5.28;;;;;;;19.10;67.81;100413.97;5052507;28;20500;-66
2021/08/11 01:39:34;;;;;;;13.93;5.18;;;;;;;19.14;67.51;100417.75;5051786;28;20546;-66
2021/08/11 01:42:25;;;;;;;16.23;5.75;;;;;;;19.12;67.38;100400.31;5052002;28;20188;-66
2021/08/11 01:45:15;;;;;;;24.95;5.38;;;;;;;19.12;67.73;100395.47;5066477;28;20482;-66
2021/08/11 01:47:49;;;;;;;35.33;6.35;;;;;;;19.23;67.96;100406.41;5072036;28;20131;-66
2021/08/11 01:50:20;;;;;;;33.55;6.07;;;;;;;19.22;68.29;100411.25;5058822;28;20133;-66
2021/08/11 01:52:49;;;;;;;44.65;5.32;;;;;;;19.08;68.29;100388.03;5051869;28;20560;-66
2021/08/11 01:55:17;;;;;;;37.17;5.80;;;;;;;18.93;68.43;100387.41;5051410;28;20536;-66
2021/08/11 01:57:51;;;;;;;25.55;6.13;;;;;;;18.93;68.67;100397.91;5051764;28;20077;-66
2021/08/11 02:00:21;;;;;;;33.05;6.50;;;;;;;18.82;69.54;100385.31;5058673;28;20354;-66
2021/08/11 02:02:50;;;;;;;17.90;4.07;;;;;;;18.63;70.31;100397.84;5072690;28;20136;-66
2021/08/11 02:05:20;;;;;;;26.95;5.93;;;;;;;18.56;70.00;100389.03;5070517;28;20171;-65
2021/08/11 02:07:48;;;;;;;17.67;6.13;;;;;;;18.50;70.13;100381.13;5055791;28;20087;-66
2021/08/11 02:10:17;;;;;;;15.73;5.22;;;;;;;18.55;70.07;100383.75;5055316;28;20136;-66
2021/08/11 02:12:44;;;;;;;22.48;6.38;;;;;;;18.61;70.07;100385.22;5052190;28;20139;-66
2021/08/11 02:15:12;;;;;;;22.08;5.18;;;;;;;18.63;70.18;100382.88;5075105;28;20047;-66
2021/08/11 02:17:40;;;;;;;21.85;6.65;;;;;;;18.65;69.86;100372.88;5075028;28;20135;-66
2021/08/11 02:20:10;;;;;;;41.83;5.25;;;;;;;18.67;69.96;100373.38;5075082;28;20148;-66
2021/08/11 02:22:37;;;;;;;10.20;5.28;;;;;;;18.58;70.21;100386.72;5073302;28;20084;-66
2021/08/11 02:25:07;;;;;;;19.67;6.03;;;;;;;18.62;70.26;100375.56;5074053;28;20143;-66
2021/08/11 02:27:42;;;;;;;25.23;4.85;;;;;;;18.31;71.15;100362.53;5075016;28;20140;-66
2021/08/11 02:30:13;;;;;;;20.00;4.32;;;;;;;18.08;72.48;100380.88;5056566;28;20127;-66
2021/08/11 02:32:40;;;;;;;54.78;7.00;;;;;;;17.91;73.16;100388.19;5074791;28;20127;-66
2021/08/11 02:35:33;;;;;;;55.78;7.47;;;;;;;17.87;73.21;100380.75;5074672;28;20076;-66
2021/08/11 02:38:07;;;;;;;24.35;6.10;;;;;;;17.94;72.67;100383.88;5073886;28;20144;-66
2021/08/11 02:40:39;;;;;;;68.20;7.20;;;;;;;18.04;72.14;100383.53;5060739;28;20468;-66
2021/08/11 02:43:24;;;;;;;47.50;5.60;;;;;;;18.04;71.83;100375.06;5054822;28;20068;-66
2021/08/11 02:45:59;;;;;;;46.05;6.40;;;;;;;17.93;72.01;100362.47;5054890;28;20136;-66
2021/08/11 02:48:28;;;;;;;38.05;7.10;;;;;;;17.96;72.45;100371.09;5059740;28;20047;-66
2021/08/11 02:50:56;;;;;;;69.43;8.65;;;;;;;18.04;72.22;100363.75;5074699;28;20135;-66
2021/08/11 02:53:26;;;;;;;82.97;9.25;;;;;;;17.80;72.24;100324.75;5074228;28;20132;-66
2021/08/11 02:55:54;;;;;;;29.38;6.78;;;;;;;18.03;72.52;100364.09;5073587;28;20527;-66
2021/08/11 02:58:22;;;;;;;22.17;5.55;;;;;;;17.99;72.56;100369.59;5073989;28;20143;-65
2021/08/11 03:00:51;;;;;;;73.97;8.00;;;;;;;17.74;73.04;100345.81;5074434;28;20075;-66
2021/08/11 03:03:18;;;;;;;91.88;8.73;;;;;;;17.93;72.44;100371.75;5073975;28;20095;-66
2021/08/11 03:05:46;;;;;;;56.83;8.40;;;;;;;17.94;72.42;100366.94;5074916;28;20070;-66
2021/08/11 03:08:14;;;;;;;90.13;10.63;;;;;;;17.98;72.61;100367.91;5074217;28;20048;-66
2021/08/11 03:10:41;;;;;;;41.25;7.75;;;;;;;17.98;72.43;100376.41;5074335;28;20123;-66
2021/08/11 03:13:13;;;;;;;66.75;9.57;;;;;;;18.11;71.77;100378.19;5071999;28;20357;-66
2021/08/11 03:15:42;;;;;;;69.32;9.63;;;;;;;17.99;71.37;100335.69;5072266;28;20044;-66
2021/08/11 03:18:09;;;;;;;25.07;7.77;;;;;;;18.33;71.77;100379.16;5073940;28;20134;-66
2021/08/11 03:20:39;;;;;;;56.63;9.20;;;;;;;18.46;71.73;100384.63;5072912;28;20076;-66
2021/08/11 03:23:06;;;;;;;50.97;9.60;;;;;;;18.57;71.39;100385.06;5073861;28;20044;-66
2021/08/11 03:25:33;;;;;;;36.30;9.25;;;;;;;18.63;70.95;100391.34;5073407;28;20083;-66
2021/08/11 03:28:00;;;;;;;64.65;9.60;;;;;;;18.18;71.00;100316.34;5074062;28;20500;-66
2021/08/11 03:30:27;;;;;;;57.10;8.82;;;;;;;18.52;71.28;100382.41;5067665;28;20105;-66
2021/08/11 03:32:54;;;;;;;53.00;8.25;;;;;;;18.05;71.57;100308.06;5052659;28;20120;-66
2021/08/11 03:35:20;;;;;;;46.33;9.20;;;;;;;18.33;71.25;100354.56;5053650;28;20124;-66
2021/08/11 03:37:48;;;;;;;38.40;8.40;;;;;;;18.22;71.72;100350.41;5053933;28;20135;-66
2021/08/11 03:40:15;;;;;;;42.92;8.45;;;;;;;18.29;71.68;100362.06;5056213;28;20132;-66
2021/08/11 03:42:42;;;;;;;36.45;8.85;;;;;;;18.28;71.76;100370.84;5073574;28;20136;-66
2021/08/11 03:45:09;;;;;;;44.80;9.27;;;;;;;18.21;71.76;100360.88;5073749;28;20124;-66
2021/08/11 03:47:40;;;;;;;34.53;8.85;;;;;;;18.32;71.92;100358.53;5066823;28;20131;-66
2021/08/11 03:50:08;;;;;;;56.78;8.40;;;;;;;18.26;71.98;100356.25;5056015;28;20056;-66
2021/08/11 03:52:35;;;;;;;59.00;8.15;;;;;;;18.24;71.35;100360.22;5075081;28;20123;-66
2021/08/11 03:55:03;;;;;;;49.53;8.05;;;;;;;18.31;71.35;100371.00;5073400;28;20102;-66
2021/08/11 03:57:29;;;;;;;124.13;13.05;;;;;;;18.29;71.79;100383.81;5052532;28;20508;-66
2021/08/11 03:59:56;;;;;;;208.35;16.15;;;;;;;18.03;72.10;100364.09;5052074;28;20128;-66
2021/08/11 04:02:23;;;;;;;114.97;12.02;;;;;;;18.15;72.11;100384.00;5053149;28;20052;-66
2021/08/11 04:04:50;;;;;;;73.32;9.88;;;;;;;18.18;72.00;100384.16;5043786;28;20378;-66
2021/08/11 04:07:17;;;;;;;91.63;10.93;;;;;;;18.08;71.86;100361.91;5033364;28;20132;-66
2021/08/11 04:09:43;;;;;;;110.70;12.60;;;;;;;18.25;71.51;100389.31;5033197;28;20073;-66
2021/08/11 04:12:10;;;;;;;103.85;11.00;;;;;;;18.19;72.09;100383.03;5032941;28;20141;-66
2021/08/11 04:14:37;;;;;;;79.45;10.27;;;;;;;18.22;72.11;100375.84;5032885;28;20087;-66
2021/08/11 04:17:04;;;;;;;61.83;12.20;;;;;;;18.22;71.90;100390.84;5032919;28;20049;-66
2021/08/11 04:19:31;;;;;;;34.40;10.77;;;;;;;18.31;71.68;100387.16;5047011;28;20135;-66
2021/08/11 04:21:57;;;;;;;133.63;15.35;;;;;;;18.46;71.65;100400.72;5043488;28;20092;-65
2021/08/11 04:24:25;;;;;;;178.73;16.48;;;;;;;18.53;71.61;100394.53;5032868;28;20500;-65
2021/08/11 04:26:52;;;;;;;57.95;11.23;;;;;;;18.41;71.50;100364.16;5032730;28;20041;-65
2021/08/11 04:29:18;;;;;;;108.00;12.55;;;;;;;18.54;71.61;100393.41;5052359;28;20128;-65
2021/08/11 04:31:45;;;;;;;65.93;11.13;;;;;;;18.62;71.40;100406.66;5052713;28;20107;-65
2021/08/11 04:34:12;;;;;;;57.85;10.52;;;;;;;18.63;71.34;100406.34;5051342;28;20104;-64
2021/08/11 04:36:39;;;;;;;72.45;10.57;;;;;;;18.62;71.28;100410.31;5051810;28;20049;-65
2021/08/11 04:39:06;;;;;;;81.53;10.85;;;;;;;18.56;71.46;100393.88;5051792;28;20131;-65
2021/08/11 04:41:33;;;;;;;43.72;9.57;;;;;;;18.58;70.96;100395.19;5052376;28;20564;-65
2021/08/11 04:44:00;;;;;;;38.03;10.43;;;;;;;18.63;71.57;100389.38;5052592;28;20132;-65
2021/08/11 04:46:26;;;;;;;34.75;10.15;;;;;;;18.79;71.52;100408.63;5051440;28;20041;-65
2021/08/11 04:48:53;;;;;;;21.27;9.65;;;;;;;18.85;71.46;100419.41;5034929;28;20071;-65
2021/08/11 04:51:21;;;;;;;34.92;9.10;;;;;;;18.93;71.08;100418.53;5031153;28;20132;-65
2021/08/11 04:53:48;;;;;;;46.88;9.45;;;;;;;18.91;71.14;100422.91;5041852;28;20245;-65
2021/08/11 04:56:14;;;;;;;60.50;10.00;;;;;;;18.78;70.57;100410.63;5060092;28;20091;-65
2021/08/11 04:58:41;;;;;;;28.15;8.40;;;;;;;18.81;70.85;100414.78;5052502;28;20151;-65
2021/08/11 05:01:08;;;;;;;66.53;8.57;;;;;;;18.78;70.82;100413.47;5051162;28;20437;-65
2021/08/11 05:03:35;;;;;;;34.38;7.25;;;;;;;18.58;70.90;100403.69;5067914;28;20052;-65
2021/08/11 05:06:03;;;;;;;56.03;9.27;;;;;;;18.62;70.98;100407.50;5052272;28;20041;-65
2021/08/11 05:08:30;;;;;;;61.10;10.70;;;;;;;18.48;70.96;100396.41;5052434;28;20041;-65
2021/08/11 05:10:57;;;;;;;29.30;9.30;;;;;;;18.67;70.93;100417.81;5034835;28;20148;-66
2021/08/11 05:13:24;;;;;;;25.40;8.55;;;;;;;18.65;70.93;100409.66;5065209;28;20488;-65
2021/08/11 05:15:51;;;;;;;29.77;8.35;;;;;;;18.68;70.80;100406.16;5072355;28;20413;-65
2021/08/11 05:18:17;;;;;;;33.83;7.63;;;;;;;18.75;71.00;100410.47;5070745;28;20140;-65
2021/08/11 05:20:44;;;;;;;26.42;7.22;;;;;;;18.36;71.06;100362.38;5072136;28;20047;-65
2021/08/11 05:23:11;;;;;;;41.00;8.05;;;;;;;18.50;71.27;100401.72;5071979;28;20136;-65
2021/08/11 05:25:38;;;;;;;62.08;8.98;;;;;;;18.52;71.14;100413.50;5071525;28;20049;-65
2021/08/11 05:28:05;;;;;;;30.25;8.55;;;;;;;18.56;71.29;100417.31;5071837;28;20472;-65
2021/08/11 05:30:32;;;;;;;21.15;7.32;;;;;;;18.52;71.43;100413.50;5057901;28;20152;-65
2021/08/11 05:32:59;;;;;;;28.60;7.65;;;;;;;18.54;71.20;100422.50;5051855;28;20076;-65
2021/08/11 05:35:25;;;;;;;31.17;9.18;;;;;;;18.55;71.06;100420.50;5051885;28;20053;-65
2021/08/11 05:37:53;;;;;;;33.72;9.45;;;;;;;18.58;71.13;100420.66;5063707;28;20074;-65
2021/08/11 05:40:20;;;;;;;47.22;9.40;;;;;;;18.54;71.35;100414.03;5075907;28;20140;-65
2021/08/11 05:42:47;;;;;;;60.67;10.85;;;;;;;18.54;71.03;100416.84;5075752;28;20176;-65
2021/08/11 05:45:14;;;;;;;65.85;11.75;;;;;;;18.70;71.03;100432.09;5076127;28;20207;-65
2021/08/11 05:47:41;;;;;;;42.00;9.90;;;;;;;18.66;71.24;100419.78;5066436;28;20469;-65
2021/08/11 05:50:09;;;;;;;51.35;10.27;;;;;;;18.63;71.14;100419.63;5055796;28;20120;-65
2021/08/11 05:52:36;;;;;;;40.95;9.00;;;;;;;18.49;71.27;100414.19;5055770;28;20072;-65
2021/08/11 05:55:03;;;;;;;42.20;11.27;;;;;;;18.57;71.35;100430.31;5070042;28;20523;-65
2021/08/11 05:57:31;;;;;;;32.03;10.50;;;;;;;18.61;71.35;100431.28;5075709;28;20080;-64
2021/08/11 05:59:58;;;;;;;45.75;9.93;;;;;;;18.64;71.37;100436.28;5075423;28;20135;-65
2021/08/11 06:02:27;;;;;;;36.67;9.13;;;;;;;18.56;71.39;100428.63;5057605;28;20127;-64
2021/08/11 06:04:54;;;;;;;30.63;10.40;;;;;;;18.56;71.42;100431.47;5058202;28;20049;-65
2021/08/11 06:07:21;;;;;;;29.38;8.73;;;;;;;18.31;72.07;100421.06;5055403;28;20136;-66
2021/08/11 06:09:48;;;;;;;49.70;9.13;;;;;;;18.23;71.97;100436.88;5055741;28;20083;-66
2021/08/11 06:12:14;;;;;;;24.70;9.63;;;;;;;18.30;71.95;100440.03;5055272;28;20056;-65
2021/08/11 06:14:41;;;;;;;57.92;10.27;;;;;;;18.44;72.14;100445.50;5070907;28;20135;-65
2021/08/11 06:17:08;;;;;;;28.35;9.52;;;;;;;18.46;72.13;100440.31;5075239;28;20067;-65
2021/08/11 06:19:35;;;;;;;28.17;9.90;;;;;;;18.56;71.81;100444.78;5074247;28;20147;-65
2021/08/11 06:22:02;;;;;;;27.80;10.20;;;;;;;18.62;72.00;100443.44;5090107;28;20091;-65
2021/08/11 06:24:29;;;;;;;27.23;10.93;;;;;;;18.66;71.99;100444.41;5073953;28;20127;-65
2021/08/11 06:26:56;;;;;;;29.92;10.80;;;;;;;18.68;72.22;100433.59;5057389;28;20142;-65
2021/08/11 06:29:22;;;;;;;34.60;13.30;;;;;;;18.86;72.43;100449.38;5075134;28;20131;-65
2021/08/11 06:31:49;;;;;;;26.92;10.50;;;;;;;18.88;72.41;100451.88;5075074;28;20079;-66
2021/08/11 06:34:17;;;;;;;25.92;10.65;;;;;;;18.76;72.28;100443.25;5073821;28;20450;-64
2021/08/11 06:36:44;;;;;;;39.38;10.45;;;;;;;18.79;72.10;100454.72;5074863;28;20052;-64
2021/08/11 06:39:11;;;;;;;61.15;11.43;;;;;;;18.80;72.03;100461.19;5055137;28;20076;-63
2021/08/11 06:41:38;;;;;;;43.35;10.60;;;;;;;18.78;71.83;100463.56;5054927;28;20127;-64
2021/08/11 06:44:05;;;;;;;47.72;11.93;;;;;;;18.81;71.76;100463.72;5054664;28;20098;-64
2021/08/11 06:46:32;;;;;;;41.90;10.73;;;;;;;18.89;71.98;100462.00;5059247;28;20080;-63
2021/08/11 06:49:00;;;;;;;56.38;12.52;;;;;;;18.93;72.15;100471.47;5073469;28;20072;-63
2021/08/11 06:51:27;;;;;;;42.20;12.05;;;;;;;18.87;71.96;100467.16;5078106;28;20131;-63
2021/08/11 06:53:54;;;;;;;45.47;15.73;;;;;;;18.86;71.85;100459.84;5082832;28;20051;-64
2021/08/11 06:56:20;;;;;;;33.17;11.90;;;;;;;19.03;72.21;100479.59;5054351;28;20092;-63
2021/08/11 06:58:47;;;;;;;30.38;11.02;;;;;;;19.05;71.69;100474.44;5054297;28;20147;-63
2021/08/11 07:01:14;;;;;;;29.08;12.18;;;;;;;19.03;71.81;100471.09;5063831;28;20132;-63
2021/08/11 07:03:41;;;;;;;37.22;10.77;;;;;;;19.05;71.63;100479.28;5074597;28;20531;-63
2021/08/11 07:06:09;;;;;;;42.25;10.60;;;;;;;18.71;71.67;100424.44;5073183;28;20520;-64
2021/08/11 07:08:35;;;;;;;32.45;11.30;;;;;;;19.10;71.45;100488.38;5074277;28;20516;-64
2021/08/11 07:11:02;;;;;;;40.22;12.10;;;;;;;19.21;71.35;100479.50;5072155;28;20083;-64
2021/08/11 07:13:29;;;;;;;33.80;12.50;;;;;;;19.30;71.56;100477.47;5053796;28;20088;-64
2021/08/11 07:15:56;;;;;;;26.95;10.50;;;;;;;19.38;71.82;100480.28;5065764;28;20041;-64
2021/08/11 07:18:23;;;;;;;34.22;12.32;;;;;;;19.45;71.69;100482.53;5073700;28;20492;-64
2021/08/11 07:20:50;;;;;;;26.10;10.77;;;;;;;19.49;71.67;100480.69;5074288;28;20072;-64
2021/08/11 07:23:16;;;;;;;30.55;11.18;;;;;;;19.62;71.46;100493.78;5073210;28;20123;-63
2021/08/11 07:25:43;;;;;;;26.95;12.07;;;;;;;19.64;71.69;100487.78;5073936;28;20530;-63
2021/08/11 07:28:10;;;;;;;22.15;10.02;;;;;;;19.77;71.14;100497.22;5071975;28;20103;-63
2021/08/11 07:30:37;;;;;;;28.17;11.82;;;;;;;19.88;70.76;100489.97;5073689;28;20090;-64
2021/08/11 07:33:07;;;;;;;26.30;10.93;;;;;;;19.97;70.69;100485.06;5073759;28;20447;-64
2021/08/11 07:35:36;;;;;;;28.13;12.00;;;;;;;20.04;70.76;100482.50;5074299;28;20102;-64
2021/08/11 07:38:04;;;;;;;24.70;11.30;;;;;;;20.04;70.29;100476.84;5072603;28;20080;-64
2021/08/11 07:40:32;;;;;;;26.42;11.82;;;;;;;20.11;70.03;100484.78;5073552;28;20051;-64
2021/08/11 07:43:00;;;;;;;26.58;13.07;;;;;;;20.13;70.00;100488.06;5073436;28;20091;-64
2021/08/11 07:45:29;;;;;;;30.27;12.43;;;;;;;20.20;69.60;100484.69;5071286;28;20124;-65
2021/08/11 07:47:58;;;;;;;27.48;13.10;;;;;;;20.21;69.55;100477.88;5055769;28;20040;-65
2021/08/11 07:50:31;;;;;;;27.45;12.55;;;;;;;20.22;69.70;100485.19;5093670;28;20123;-65
2021/08/11 07:52:57;;;;;;;29.90;11.90;;;;;;;20.24;69.75;100479.97;5053049;28;20140;-65
2021/08/11 07:55:25;;;;;;;25.10;11.75;;;;;;;20.34;69.73;100485.22;5056081;28;20080;-65
2021/08/11 07:57:53;;;;;;;28.50;11.68;;;;;;;20.42;69.31;100498.50;5073339;28;20135;-65
2021/08/11 08:00:22;;;;;;;26.70;10.98;;;;;;;20.45;69.66;100494.97;5072907;28;20127;-65
2021/08/11 08:02:52;;;;;;;26.55;11.50;;;;;;;20.51;69.43;100493.63;5064099;28;20099;-64
2021/08/11 08:05:20;;;;;;;23.40;10.15;;;;;;;20.52;69.25;100481.06;5053317;28;20168;-64
2021/08/11 08:07:48;;;;;;;25.52;11.48;;;;;;;20.68;69.06;100486.06;5053110;28;20052;-64
2021/08/11 08:10:16;;;;;;;20.92;10.93;;;;;;;20.75;68.99;100486.31;5053006;28;20079;-64
2021/08/11 08:12:43;;;;;;;24.63;12.02;;;;;;;20.91;69.04;100498.66;5053163;28;20053;-64
2021/08/11 08:15:13;;;;;;;24.10;11.90;;;;;;;21.04;68.60;100486.16;5052768;28;20041;-65
2021/08/11 08:17:41;;;;;;;24.52;12.43;;;;;;;21.15;68.63;100480.00;5071590;28;20076;-65
2021/08/11 08:20:15;;;;;;;24.02;12.38;;;;;;;21.37;68.24;100485.28;5060849;28;20080;-64
2021/08/11 08:22:42;;;;;;;22.65;11.95;;;;;;;21.47;67.73;100473.44;5052468;28;20084;-64
2021/08/11 08:25:09;;;;;;;27.65;12.85;;;;;;;21.94;67.21;100487.06;5035136;28;20080;-65
2021/08/11 08:27:38;;;;;;;26.33;13.63;;;;;;;22.22;66.48;100483.44;5053101;28;20453;-64
2021/08/11 08:30:07;;;;;;;21.10;11.80;;;;;;;22.34;66.04;100474.06;5069534;28;20068;-64
2021/08/11 08:32:34;;;;;;;31.30;13.53;;;;;;;22.54;65.59;100483.56;5072389;28;20440;-64
2021/08/11 08:35:00;;;;;;;24.25;12.15;;;;;;;22.88;65.24;100493.47;5052793;28;20507;-64
2021/08/11 08:37:34;;;;;;;25.58;13.35;;;;;;;23.09;64.44;100485.50;5047855;28;20053;-64
2021/08/11 08:40:13;;;;;;;26.20;13.32;;;;;;;23.05;63.93;100458.16;5072609;28;20048;-64
2021/08/11 08:42:41;;;;;;;26.33;13.02;;;;;;;23.12;63.79;100475.41;5072136;28;20132;-64
2021/08/11 08:45:10;;;;;;;23.42;12.18;;;;;;;23.09;63.63;100479.00;5069554;28;20072;-64
2021/08/11 08:47:38;;;;;;;28.35;13.88;;;;;;;23.18;63.63;100491.03;5034651;28;20468;-64
2021/08/11 08:50:07;;;;;;;29.50;13.27;;;;;;;23.29;63.42;100489.28;5071038;28;20135;-65
2021/08/11 08:52:36;;;;;;;24.90;12.55;;;;;;;23.63;62.54;100481.16;5064346;28;20463;-65
2021/08/11 08:55:05;;;;;;;25.40;12.63;;;;;;;23.85;61.84;100469.06;5053372;28;20139;-65
2021/08/11 08:57:35;;;;;;;24.17;12.73;;;;;;;24.36;61.47;100486.06;5052690;28;20132;-65
2021/08/11 09:00:08;;;;;;;;;;;;;;;24.51;61.93;100472.09;5052611;28;20049;-65
2021/08/11 09:02:38;;;;;;;23.05;12.02;;;;;;;24.93;60.47;100477.00;5052439;28;20004;-65
2021/08/11 09:05:10;;;;;;;27.15;13.02;;;;;;;25.32;59.26;100465.44;5057981;28;20095;-64
2021/08/11 09:07:42;;;;;;;20.25;12.50;;;;;;;25.77;57.95;100439.59;5072118;28;20127;-65
2021/08/11 09:10:26;;;;;;;23.38;12.00;;;;;;;26.53;56.55;100467.22;5069118;28;20075;-65
2021/08/11 09:13:07;;;;;;;19.20;11.70;;;;;;;26.92;55.50;100475.41;5051413;28;20044;-65
2021/08/11 09:15:35;;;;;;;18.75;10.95;;;;;;;27.30;54.85;100482.75;5051944;28;20099;-64
2021/08/11 09:18:17;;;;;;;18.03;10.13;;;;;;;27.64;54.00;100474.00;5071136;28;20048;-64
2021/08/11 09:20:48;;;;;;;22.55;10.98;;;;;;;28.05;53.07;100477.56;5071909;28;20347;-65
2021/08/11 09:23:32;;;;;;;17.60;10.60;;;;;;;28.31;52.47;100476.47;5071972;28;20052;-66
2021/08/11 09:26:02;;;;;;;16.35;9.48;;;;;;;28.63;51.16;100467.16;5038428;28;20537;-65
2021/08/11 09:28:32;;;;;;;17.83;10.48;;;;;;;28.91;50.37;100475.03;5064122;28;20956;-65
2021/08/11 09:31:31;;;;;;;18.00;10.52;;;;;;;29.13;50.51;100467.31;5055187;28;20067;-64
2021/08/11 09:33:58;;;;;;;19.23;11.48;;;;;;;29.51;48.65;100473.47;5067580;28;20049;-64
2021/08/11 09:36:25;;;;;;;17.73;10.23;;;;;;;29.77;47.91;100472.19;5071839;28;20084;-64
2021/08/11 09:39:03;;;;;;;18.88;10.30;;;;;;;29.92;47.71;100461.50;5071724;28;20079;-64
2021/08/11 09:41:31;;;;;;;23.27;11.32;;;;;;;30.24;47.08;100467.16;5070976;28;20496;-65
2021/08/11 09:44:17;;;;;;;21.33;9.88;;;;;;;30.27;47.16;100460.56;5070497;28;20083;-66
2021/08/11 09:46:44;;;;;;;24.80;12.32;;;;;;;30.67;45.67;100466.97;5067983;28;20048;-65
2021/08/11 09:49:16;;;;;;;21.23;10.93;;;;;;;30.96;45.39;100461.88;5060482;28;20045;-64
2021/08/11 09:52:00;;;;;;;21.17;11.20;;;;;;;31.16;45.32;100460.06;5069121;28;20492;-64
2021/08/11 09:54:29;;;;;;;18.10;10.55;;;;;;;31.44;44.25;100463.16;5079240;28;20118;-65
2021/08/11 09:56:57;;;;;;;15.32;10.95;;;;;;;31.65;44.13;100457.19;5071384;28;20084;-64
2021/08/11 09:59:24;;;;;;;19.80;11.10;;;;;;;31.83;42.77;100465.66;5053616;28;20132;-64
2021/08/11 10:01:52;;;;;;;21.05;12.18;;;;;;;32.00;42.65;100460.97;5069794;28;20076;-65
2021/08/11 10:04:19;;;;;;;20.25;10.38;;;;;;;32.30;42.41;100469.66;5071243;28;20136;-65
2021/08/11 10:06:47;;;;;;;18.42;11.65;;;;;;;32.65;41.41;100464.72;5070201;28;20048;-66
2021/08/11 10:09:15;;;;;;;19.35;10.73;;;;;;;32.88;41.32;100486.28;5071686;28;20052;-64
2021/08/11 10:11:54;;;;;;;21.50;12.90;;;;;;;32.99;41.34;100464.66;5071167;28;20123;-64
2021/08/11 10:14:24;;;;;;;18.02;10.27;;;;;;;33.26;40.78;100461.72;5070092;28;20041;-64
2021/08/11 10:16:53;;;;;;;18.13;10.48;;;;;;;33.44;40.07;100443.25;5071467;28;20095;-65
2021/08/11 10:19:23;;;;;;;18.50;10.00;;;;;;;33.64;39.25;100458.63;5058669;28;20095;-64
2021/08/11 10:22:01;;;;;;;19.45;10.80;;;;;;;33.85;39.33;100462.38;5051391;28;20099;-65
2021/08/11 10:24:29;;;;;;;16.45;9.00;;;;;;;34.04;39.01;100458.69;5053254;28;20052;-64
2021/08/11 10:26:57;;;;;;;14.25;9.15;;;;;;;34.24;38.83;100466.59;5061187;28;20555;-64
2021/08/11 10:29:24;;;;;;;14.93;8.52;;;;;;;34.39;38.44;100447.63;5074581;28;20136;-65
2021/08/11 10:31:51;;;;;;;13.80;7.97;;;;;;;34.51;37.89;100452.78;5074592;28;20650;-64
2021/08/11 10:34:18;;;;;;;16.50;8.18;;;;;;;34.70;38.26;100458.97;5074748;28;20191;-64
2021/08/11 10:36:46;;;;;;;15.27;8.30;;;;;;;34.77;37.94;100441.41;5058609;28;20049;-64
2021/08/11 10:39:14;;;;;;;17.20;9.03;;;;;;;34.83;37.41;100454.13;5054413;28;20124;-63
2021/08/11 10:41:42;;;;;;;17.30;8.68;;;;;;;34.77;37.21;100441.41;5054691;28;20084;-64
2021/08/11 10:44:20;;;;;;;14.43;7.80;;;;;;;34.82;37.59;100452.50;5054907;28;20528;-63
2021/08/11 10:46:59;;;;;;;12.63;8.85;;;;;;;34.86;37.27;100447.41;5054708;28;20132;-64
2021/08/11 10:49:29;;;;;;;;;;;;;;;34.53;39.45;100440.72;5054615;28;20083;-64
2021/08/11 10:52:13;;;;;;;14.68;9.13;;;;;;;34.97;37.41;100439.25;5055054;28;19970;-64
2021/08/11 10:54:59;;;;;;;14.63;8.15;;;;;;;35.05;37.60;100434.97;5073950;28;20462;-63
2021/08/11 10:57:35;;;;;;;15.40;8.02;;;;;;;35.08;36.98;100428.25;5073257;28;20090;-64
2021/08/11 11:00:09;;;;;;;13.18;7.35;;;;;;;35.10;36.97;100443.13;5074032;28;20053;-64
2021/08/11 11:02:39;;;;;;;14.23;7.63;;;;;;;35.21;36.23;100430.44;5066150;28;20128;-64
2021/08/11 11:05:27;;;;;;;14.38;7.20;;;;;;;35.49;36.87;100426.78;5072982;28;20120;-64
2021/08/11 11:08:15;;;;;;;16.33;7.65;;;;;;;35.80;36.41;100435.13;5060686;28;20110;-63
2021/08/11 11:10:44;;;;;;;13.15;7.13;;;;;;;35.93;35.65;100441.78;5069673;28;20040;-64
2021/08/11 11:13:28;;;;;;;16.45;9.45;;;;;;;35.75;35.27;100435.66;5073723;28;20086;-64
2021/08/11 11:15:59;;;;;;;15.25;8.68;;;;;;;35.52;35.10;100434.63;5073913;28;20492;-64
2021/08/11 11:18:26;;;;;;;12.30;8.50;;;;;;;35.14;35.43;100455.44;5073032;28;20128;-65
2021/08/11 11:20:56;;;;;;;18.30;8.77;;;;;;;34.92;35.21;100439.81;5074130;28;20131;-65
2021/08/11 11:23:44;;;;;;;13.82;8.73;;;;;;;34.58;35.99;100441.03;5073875;28;20041;-63
2021/08/11 11:26:15;;;;;;;17.02;9.45;;;;;;;34.41;35.81;100436.41;5069840;28;20083;-63